sensor_id;sensor_type;location;lat;lon;timestamp;P1;durP1;ratioP1;P2;durP2;ratioP2
45136;SDS011;30894;51.740;19.498;2022-12-24T00:00:33;6.30;;;2.97;;
45136;SDS011;30894;51.740;19.498;2022-12-24T00:03:17;6.07;;;2.92;;
45136;SDS011;30894;51.740;19.498;2022-12-24T00:05:43;7.13;;;2.83;;
45136;SDS011;30894;51.740;19.498;2022-12-24T00:08:09;13.02;;;3.53;;
45136;SDS011;30894;51.740;19.498;2022-12-24T00:10:35;7.85;;;3.58;;
45136;SDS011;30894;51.740;19.498;2022-12-24T00:13:02;15.30;;;4.80;;
45136;SDS011;30894;51.740;19.498;2022-12-24T00:15:28;13.23;;;5.82;;
45136;SDS011;30894;51.740;19.498;2022-12-24T00:17:54;7.07;;;3.83;;
45136;SDS011;30894;51.740;19.498;2022-12-24T00:20:20;11.30;;;3.70;;
45136;SDS011;30894;51.740;19.498;2022-12-24T00:22:49;8.10;;;2.75;;
45136;SDS011;30894;51.740;19.498;2022-12-24T00:25:18;8.50;;;3.55;;
45136;SDS011;30894;51.740;19.498;2022-12-24T00:27:47;5.78;;;2.55;;
45136;SDS011;30894;51.740;19.498;2022-12-24T00:30:14;9.90;;;3.50;;
45136;SDS011;30894;51.740;19.498;2022-12-24T00:32:40;9.52;;;4.15;;
45136;SDS011;30894;51.740;19.498;2022-12-24T00:35:07;12.35;;;3.28;;
45136;SDS011;30894;51.740;19.498;2022-12-24T00:37:33;9.05;;;3.83;;
45136;SDS011;30894;51.740;19.498;2022-12-24T00:39:59;11.05;;;3.53;;
45136;SDS011;30894;51.740;19.498;2022-12-24T00:42:26;9.25;;;3.20;;
45136;SDS011;30894;51.740;19.498;2022-12-24T00:44:52;3.80;;;2.28;;
45136;SDS011;30894;51.740;19.498;2022-12-24T00:47:19;7.00;;;2.38;;
45136;SDS011;30894;51.740;19.498;2022-12-24T00:49:45;6.40;;;3.67;;
45136;SDS011;30894;51.740;19.498;2022-12-24T00:52:11;5.85;;;2.72;;
45136;SDS011;30894;51.740;19.498;2022-12-24T00:54:38;5.65;;;3.03;;
45136;SDS011;30894;51.740;19.498;2022-12-24T00:57:04;7.88;;;3.35;;
45136;SDS011;30894;51.740;19.498;2022-12-24T00:59:31;6.45;;;3.28;;
45136;SDS011;30894;51.740;19.498;2022-12-24T01:01:58;6.32;;;2.45;;
45136;SDS011;30894;51.740;19.498;2022-12-24T01:04:24;7.00;;;3.28;;
45136;SDS011;30894;51.740;19.498;2022-12-24T01:07:09;6.57;;;3.55;;
45136;SDS011;30894;51.740;19.498;2022-12-24T01:09:36;5.53;;;3.92;;
45136;SDS011;30894;51.740;19.498;2022-12-24T01:12:02;4.93;;;3.40;;
45136;SDS011;30894;51.740;19.498;2022-12-24T01:14:29;3.60;;;1.63;;
45136;SDS011;30894;51.740;19.498;2022-12-24T01:16:57;8.98;;;3.67;;
45136;SDS011;30894;51.740;19.498;2022-12-24T01:19:23;8.35;;;3.92;;
45136;SDS011;30894;51.740;19.498;2022-12-24T01:21:50;5.50;;;3.53;;
45136;SDS011;30894;51.740;19.498;2022-12-24T01:24:17;8.65;;;3.58;;
45136;SDS011;30894;51.740;19.498;2022-12-24T01:26:43;8.10;;;3.58;;
45136;SDS011;30894;51.740;19.498;2022-12-24T01:29:11;10.35;;;2.90;;
45136;SDS011;30894;51.740;19.498;2022-12-24T01:31:37;7.18;;;2.50;;
45136;SDS011;30894;51.740;19.498;2022-12-24T01:34:03;5.05;;;2.42;;
45136;SDS011;30894;51.740;19.498;2022-12-24T01:36:31;4.82;;;3.22;;
45136;SDS011;30894;51.740;19.498;2022-12-24T01:38:57;5.85;;;3.03;;
45136;SDS011;30894;51.740;19.498;2022-12-24T01:41:24;5.63;;;3.25;;
45136;SDS011;30894;51.740;19.498;2022-12-24T01:44:20;5.88;;;3.13;;
45136;SDS011;30894;51.740;19.498;2022-12-24T01:47:15;11.70;;;3.05;;
45136;SDS011;30894;51.740;19.498;2022-12-24T01:49:49;8.05;;;2.97;;
45136;SDS011;30894;51.740;19.498;2022-12-24T01:52:27;8.90;;;3.50;;
45136;SDS011;30894;51.740;19.498;2022-12-24T01:54:59;11.70;;;3.97;;
45136;SDS011;30894;51.740;19.498;2022-12-24T01:57:36;4.32;;;2.63;;
45136;SDS011;30894;51.740;19.498;2022-12-24T02:00:09;4.07;;;2.30;;
45136;SDS011;30894;51.740;19.498;2022-12-24T02:02:38;6.32;;;3.08;;
45136;SDS011;30894;51.740;19.498;2022-12-24T02:05:07;5.70;;;3.38;;
45136;SDS011;30894;51.740;19.498;2022-12-24T02:07:42;4.63;;;1.58;;
45136;SDS011;30894;51.740;19.498;2022-12-24T02:10:09;3.22;;;2.53;;
45136;SDS011;30894;51.740;19.498;2022-12-24T02:12:39;7.25;;;2.95;;
45136;SDS011;30894;51.740;19.498;2022-12-24T02:15:07;4.30;;;2.47;;
45136;SDS011;30894;51.740;19.498;2022-12-24T02:32:54;7.63;;;3.78;;
45136;SDS011;30894;51.740;19.498;2022-12-24T02:36:04;4.55;;;2.80;;
45136;SDS011;30894;51.740;19.498;2022-12-24T02:38:45;3.70;;;2.72;;
45136;SDS011;30894;51.740;19.498;2022-12-24T02:41:24;7.90;;;3.30;;
45136;SDS011;30894;51.740;19.498;2022-12-24T02:44:19;7.88;;;3.65;;
45136;SDS011;30894;51.740;19.498;2022-12-24T02:46:51;11.07;;;3.65;;
45136;SDS011;30894;51.740;19.498;2022-12-24T02:49:18;4.00;;;2.63;;
45136;SDS011;30894;51.740;19.498;2022-12-24T02:51:45;6.82;;;3.33;;
45136;SDS011;30894;51.740;19.498;2022-12-24T02:54:11;7.15;;;3.60;;
45136;SDS011;30894;51.740;19.498;2022-12-24T03:05:25;4.40;;;2.53;;
45136;SDS011;30894;51.740;19.498;2022-12-24T03:13:26;2.42;;;1.75;;
45136;SDS011;30894;51.740;19.498;2022-12-24T03:15:53;6.40;;;3.20;;
45136;SDS011;30894;51.740;19.498;2022-12-24T03:18:21;7.60;;;3.05;;
45136;SDS011;30894;51.740;19.498;2022-12-24T03:20:54;5.53;;;3.20;;
45136;SDS011;30894;51.740;19.498;2022-12-24T03:23:28;14.45;;;2.80;;
45136;SDS011;30894;51.740;19.498;2022-12-24T03:25:54;5.25;;;3.40;;
45136;SDS011;30894;51.740;19.498;2022-12-24T03:28:23;13.07;;;3.70;;
45136;SDS011;30894;51.740;19.498;2022-12-24T03:30:52;2.63;;;2.38;;
45136;SDS011;30894;51.740;19.498;2022-12-24T03:33:19;7.03;;;2.35;;
45136;SDS011;30894;51.740;19.498;2022-12-24T03:35:47;8.13;;;3.28;;
45136;SDS011;30894;51.740;19.498;2022-12-24T03:38:13;4.72;;;3.17;;
45136;SDS011;30894;51.740;19.498;2022-12-24T03:40:40;7.55;;;3.63;;
45136;SDS011;30894;51.740;19.498;2022-12-24T03:43:07;4.38;;;2.92;;
45136;SDS011;30894;51.740;19.498;2022-12-24T03:45:33;5.90;;;4.30;;
45136;SDS011;30894;51.740;19.498;2022-12-24T03:48:00;9.23;;;4.93;;
45136;SDS011;30894;51.740;19.498;2022-12-24T03:50:27;7.93;;;3.92;;
45136;SDS011;30894;51.740;19.498;2022-12-24T03:52:54;10.60;;;4.25;;
45136;SDS011;30894;51.740;19.498;2022-12-24T03:55:21;9.48;;;4.22;;
45136;SDS011;30894;51.740;19.498;2022-12-24T03:57:48;7.03;;;4.20;;
45136;SDS011;30894;51.740;19.498;2022-12-24T04:00:16;6.97;;;4.05;;
45136;SDS011;30894;51.740;19.498;2022-12-24T04:02:43;12.73;;;4.28;;
45136;SDS011;30894;51.740;19.498;2022-12-24T04:05:16;7.28;;;4.18;;
45136;SDS011;30894;51.740;19.498;2022-12-24T04:07:46;7.50;;;4.93;;
45136;SDS011;30894;51.740;19.498;2022-12-24T04:10:12;10.20;;;4.88;;
45136;SDS011;30894;51.740;19.498;2022-12-24T04:12:40;6.07;;;3.95;;
45136;SDS011;30894;51.740;19.498;2022-12-24T04:15:07;4.63;;;3.60;;
45136;SDS011;30894;51.740;19.498;2022-12-24T04:17:34;16.13;;;3.65;;
45136;SDS011;30894;51.740;19.498;2022-12-24T04:20:00;8.55;;;4.00;;
45136;SDS011;30894;51.740;19.498;2022-12-24T04:22:28;4.97;;;4.35;;
45136;SDS011;30894;51.740;19.498;2022-12-24T04:24:54;10.32;;;5.55;;
45136;SDS011;30894;51.740;19.498;2022-12-24T04:27:21;13.13;;;4.47;;
45136;SDS011;30894;51.740;19.498;2022-12-24T04:29:48;9.95;;;4.32;;
45136;SDS011;30894;51.740;19.498;2022-12-24T04:32:15;7.75;;;4.63;;
45136;SDS011;30894;51.740;19.498;2022-12-24T04:34:42;14.20;;;4.93;;
45136;SDS011;30894;51.740;19.498;2022-12-24T04:37:08;8.57;;;5.28;;
45136;SDS011;30894;51.740;19.498;2022-12-24T04:39:34;12.55;;;4.40;;
45136;SDS011;30894;51.740;19.498;2022-12-24T04:42:01;5.88;;;4.30;;
45136;SDS011;30894;51.740;19.498;2022-12-24T04:44:28;4.47;;;3.15;;
45136;SDS011;30894;51.740;19.498;2022-12-24T04:46:54;6.43;;;3.58;;
45136;SDS011;30894;51.740;19.498;2022-12-24T04:49:21;9.38;;;3.80;;
45136;SDS011;30894;51.740;19.498;2022-12-24T04:51:47;3.65;;;2.33;;
45136;SDS011;30894;51.740;19.498;2022-12-24T04:54:13;9.55;;;4.65;;
45136;SDS011;30894;51.740;19.498;2022-12-24T04:56:39;6.82;;;3.50;;
45136;SDS011;30894;51.740;19.498;2022-12-24T04:59:05;4.95;;;3.15;;
45136;SDS011;30894;51.740;19.498;2022-12-24T05:01:32;8.55;;;4.30;;
45136;SDS011;30894;51.740;19.498;2022-12-24T05:03:58;5.20;;;2.70;;
45136;SDS011;30894;51.740;19.498;2022-12-24T05:06:27;5.90;;;3.45;;
45136;SDS011;30894;51.740;19.498;2022-12-24T05:08:57;5.35;;;3.15;;
45136;SDS011;30894;51.740;19.498;2022-12-24T05:11:26;9.52;;;5.13;;
45136;SDS011;30894;51.740;19.498;2022-12-24T05:13:54;8.85;;;4.28;;
45136;SDS011;30894;51.740;19.498;2022-12-24T05:16:22;8.27;;;4.22;;
45136;SDS011;30894;51.740;19.498;2022-12-24T05:18:48;10.55;;;4.07;;
45136;SDS011;30894;51.740;19.498;2022-12-24T05:21:16;5.15;;;3.35;;
45136;SDS011;30894;51.740;19.498;2022-12-24T05:23:47;7.22;;;3.83;;
45136;SDS011;30894;51.740;19.498;2022-12-24T05:29:16;9.38;;;4.30;;
45136;SDS011;30894;51.740;19.498;2022-12-24T05:31:42;8.15;;;4.07;;
45136;SDS011;30894;51.740;19.498;2022-12-24T05:34:10;5.88;;;3.20;;
45136;SDS011;30894;51.740;19.498;2022-12-24T05:36:38;6.47;;;3.85;;
45136;SDS011;30894;51.740;19.498;2022-12-24T05:39:05;4.75;;;2.42;;
45136;SDS011;30894;51.740;19.498;2022-12-24T05:41:31;7.40;;;3.92;;
45136;SDS011;30894;51.740;19.498;2022-12-24T05:43:58;5.78;;;3.35;;
45136;SDS011;30894;51.740;19.498;2022-12-24T05:46:24;6.72;;;3.92;;
45136;SDS011;30894;51.740;19.498;2022-12-24T05:48:51;7.68;;;3.88;;
45136;SDS011;30894;51.740;19.498;2022-12-24T05:51:19;9.52;;;4.32;;
45136;SDS011;30894;51.740;19.498;2022-12-24T05:53:46;8.98;;;4.25;;
45136;SDS011;30894;51.740;19.498;2022-12-24T05:56:16;8.10;;;4.50;;
45136;SDS011;30894;51.740;19.498;2022-12-24T05:58:47;8.00;;;4.07;;
45136;SDS011;30894;51.740;19.498;2022-12-24T06:01:15;7.20;;;3.33;;
45136;SDS011;30894;51.740;19.498;2022-12-24T06:03:41;6.03;;;3.00;;
45136;SDS011;30894;51.740;19.498;2022-12-24T06:06:10;7.40;;;3.80;;
45136;SDS011;30894;51.740;19.498;2022-12-24T06:08:43;4.40;;;3.08;;
45136;SDS011;30894;51.740;19.498;2022-12-24T06:11:11;6.88;;;4.35;;
45136;SDS011;30894;51.740;19.498;2022-12-24T06:13:40;6.50;;;3.83;;
45136;SDS011;30894;51.740;19.498;2022-12-24T06:16:10;10.32;;;4.78;;
45136;SDS011;30894;51.740;19.498;2022-12-24T06:18:42;11.70;;;4.40;;
45136;SDS011;30894;51.740;19.498;2022-12-24T06:21:12;10.57;;;4.53;;
45136;SDS011;30894;51.740;19.498;2022-12-24T06:23:40;14.15;;;5.63;;
45136;SDS011;30894;51.740;19.498;2022-12-24T06:26:08;12.18;;;6.55;;
45136;SDS011;30894;51.740;19.498;2022-12-24T06:28:39;18.15;;;8.82;;
45136;SDS011;30894;51.740;19.498;2022-12-24T06:31:06;11.15;;;5.30;;
45136;SDS011;30894;51.740;19.498;2022-12-24T06:33:39;13.80;;;5.90;;
45136;SDS011;30894;51.740;19.498;2022-12-24T06:36:06;13.07;;;5.80;;
45136;SDS011;30894;51.740;19.498;2022-12-24T06:38:42;8.27;;;3.95;;
45136;SDS011;30894;51.740;19.498;2022-12-24T06:41:08;7.03;;;3.38;;
45136;SDS011;30894;51.740;19.498;2022-12-24T06:43:35;9.85;;;4.53;;
45136;SDS011;30894;51.740;19.498;2022-12-24T06:46:01;8.45;;;4.30;;
45136;SDS011;30894;51.740;19.498;2022-12-24T06:48:29;9.73;;;4.72;;
45136;SDS011;30894;51.740;19.498;2022-12-24T06:51:00;5.95;;;3.40;;
45136;SDS011;30894;51.740;19.498;2022-12-24T06:53:27;10.18;;;4.95;;
45136;SDS011;30894;51.740;19.498;2022-12-24T06:56:07;7.35;;;4.47;;
45136;SDS011;30894;51.740;19.498;2022-12-24T06:58:36;7.65;;;2.83;;
45136;SDS011;30894;51.740;19.498;2022-12-24T07:01:04;13.60;;;4.30;;
45136;SDS011;30894;51.740;19.498;2022-12-24T07:03:31;9.60;;;3.97;;
45136;SDS011;30894;51.740;19.498;2022-12-24T07:05:58;9.05;;;4.20;;
45136;SDS011;30894;51.740;19.498;2022-12-24T07:08:24;11.52;;;3.20;;
45136;SDS011;30894;51.740;19.498;2022-12-24T07:10:52;11.27;;;4.97;;
45136;SDS011;30894;51.740;19.498;2022-12-24T07:13:18;10.95;;;4.68;;
45136;SDS011;30894;51.740;19.498;2022-12-24T07:15:44;8.23;;;3.78;;
45136;SDS011;30894;51.740;19.498;2022-12-24T07:18:11;9.98;;;4.75;;
45136;SDS011;30894;51.740;19.498;2022-12-24T07:20:37;8.65;;;4.47;;
45136;SDS011;30894;51.740;19.498;2022-12-24T07:23:03;11.75;;;4.95;;
45136;SDS011;30894;51.740;19.498;2022-12-24T07:25:29;16.10;;;7.57;;
45136;SDS011;30894;51.740;19.498;2022-12-24T07:27:55;11.95;;;6.55;;
45136;SDS011;30894;51.740;19.498;2022-12-24T07:30:21;10.93;;;6.13;;
45136;SDS011;30894;51.740;19.498;2022-12-24T07:32:47;14.00;;;6.47;;
45136;SDS011;30894;51.740;19.498;2022-12-24T07:35:14;10.93;;;4.60;;
45136;SDS011;30894;51.740;19.498;2022-12-24T07:37:40;13.40;;;6.38;;
45136;SDS011;30894;51.740;19.498;2022-12-24T07:40:09;9.45;;;4.88;;
45136;SDS011;30894;51.740;19.498;2022-12-24T07:42:35;15.57;;;6.82;;
45136;SDS011;30894;51.740;19.498;2022-12-24T07:45:01;9.35;;;5.53;;
45136;SDS011;30894;51.740;19.498;2022-12-24T07:47:28;11.18;;;5.55;;
45136;SDS011;30894;51.740;19.498;2022-12-24T07:49:54;10.00;;;4.25;;
45136;SDS011;30894;51.740;19.498;2022-12-24T07:52:20;12.48;;;5.35;;
45136;SDS011;30894;51.740;19.498;2022-12-24T07:54:46;12.93;;;6.05;;
45136;SDS011;30894;51.740;19.498;2022-12-24T07:57:12;8.43;;;4.63;;
45136;SDS011;30894;51.740;19.498;2022-12-24T07:59:39;8.82;;;3.90;;
45136;SDS011;30894;51.740;19.498;2022-12-24T08:02:05;7.40;;;3.95;;
45136;SDS011;30894;51.740;19.498;2022-12-24T08:04:33;8.70;;;6.10;;
45136;SDS011;30894;51.740;19.498;2022-12-24T08:07:01;9.10;;;5.22;;
45136;SDS011;30894;51.740;19.498;2022-12-24T08:09:32;13.57;;;5.25;;
45136;SDS011;30894;51.740;19.498;2022-12-24T08:12:00;6.63;;;3.55;;
45136;SDS011;30894;51.740;19.498;2022-12-24T08:14:29;10.70;;;5.82;;
45136;SDS011;30894;51.740;19.498;2022-12-24T08:16:56;9.30;;;5.05;;
45136;SDS011;30894;51.740;19.498;2022-12-24T08:19:22;15.40;;;5.15;;
45136;SDS011;30894;51.740;19.498;2022-12-24T08:21:48;23.25;;;7.70;;
45136;SDS011;30894;51.740;19.498;2022-12-24T08:24:15;7.85;;;4.82;;
45136;SDS011;30894;51.740;19.498;2022-12-24T08:26:41;14.30;;;6.82;;
45136;SDS011;30894;51.740;19.498;2022-12-24T08:29:07;17.67;;;5.45;;
45136;SDS011;30894;51.740;19.498;2022-12-24T08:31:34;9.73;;;3.92;;
45136;SDS011;30894;51.740;19.498;2022-12-24T08:34:04;10.93;;;4.25;;
45136;SDS011;30894;51.740;19.498;2022-12-24T08:36:33;8.30;;;5.03;;
45136;SDS011;30894;51.740;19.498;2022-12-24T08:38:59;7.15;;;4.15;;
45136;SDS011;30894;51.740;19.498;2022-12-24T08:41:30;8.75;;;4.47;;
45136;SDS011;30894;51.740;19.498;2022-12-24T08:43:57;14.27;;;5.07;;
45136;SDS011;30894;51.740;19.498;2022-12-24T08:46:23;6.85;;;4.07;;
45136;SDS011;30894;51.740;19.498;2022-12-24T08:48:49;14.95;;;5.82;;
45136;SDS011;30894;51.740;19.498;2022-12-24T08:51:15;11.25;;;4.07;;
45136;SDS011;30894;51.740;19.498;2022-12-24T08:53:43;14.88;;;7.63;;
45136;SDS011;30894;51.740;19.498;2022-12-24T08:56:10;14.10;;;7.45;;
45136;SDS011;30894;51.740;19.498;2022-12-24T08:58:37;12.93;;;6.03;;
45136;SDS011;30894;51.740;19.498;2022-12-24T09:01:11;10.80;;;5.82;;
45136;SDS011;30894;51.740;19.498;2022-12-24T09:03:40;14.70;;;5.88;;
45136;SDS011;30894;51.740;19.498;2022-12-24T09:06:07;12.27;;;6.75;;
45136;SDS011;30894;51.740;19.498;2022-12-24T09:08:34;13.50;;;5.90;;
45136;SDS011;30894;51.740;19.498;2022-12-24T09:11:01;12.32;;;6.07;;
45136;SDS011;30894;51.740;19.498;2022-12-24T09:13:32;13.90;;;5.60;;
45136;SDS011;30894;51.740;19.498;2022-12-24T09:15:58;19.92;;;8.15;;
45136;SDS011;30894;51.740;19.498;2022-12-24T09:18:25;17.65;;;8.10;;
45136;SDS011;30894;51.740;19.498;2022-12-24T09:20:51;15.15;;;6.95;;
45136;SDS011;30894;51.740;19.498;2022-12-24T09:23:28;12.55;;;5.75;;
45136;SDS011;30894;51.740;19.498;2022-12-24T09:25:55;12.45;;;6.35;;
45136;SDS011;30894;51.740;19.498;2022-12-24T09:28:22;11.88;;;5.88;;
45136;SDS011;30894;51.740;19.498;2022-12-24T09:30:58;15.43;;;6.38;;
45136;SDS011;30894;51.740;19.498;2022-12-24T09:33:27;10.70;;;6.38;;
45136;SDS011;30894;51.740;19.498;2022-12-24T09:35:55;20.95;;;6.50;;
45136;SDS011;30894;51.740;19.498;2022-12-24T09:38:22;25.92;;;6.55;;
45136;SDS011;30894;51.740;19.498;2022-12-24T09:40:52;22.40;;;6.47;;
45136;SDS011;30894;51.740;19.498;2022-12-24T09:43:20;13.40;;;7.13;;
45136;SDS011;30894;51.740;19.498;2022-12-24T09:45:57;13.43;;;5.47;;
45136;SDS011;30894;51.740;19.498;2022-12-24T09:48:36;7.60;;;3.85;;
45136;SDS011;30894;51.740;19.498;2022-12-24T09:51:10;11.10;;;5.22;;
45136;SDS011;30894;51.740;19.498;2022-12-24T09:53:52;12.57;;;5.05;;
45136;SDS011;30894;51.740;19.498;2022-12-24T09:56:29;6.53;;;4.60;;
45136;SDS011;30894;51.740;19.498;2022-12-24T09:59:02;6.32;;;3.95;;
45136;SDS011;30894;51.740;19.498;2022-12-24T10:01:32;15.68;;;4.28;;
45136;SDS011;30894;51.740;19.498;2022-12-24T10:04:03;8.88;;;4.20;;
45136;SDS011;30894;51.740;19.498;2022-12-24T10:06:49;4.93;;;3.95;;
45136;SDS011;30894;51.740;19.498;2022-12-24T10:12:30;6.28;;;3.58;;
45136;SDS011;30894;51.740;19.498;2022-12-24T10:16:02;5.80;;;3.35;;
45136;SDS011;30894;51.740;19.498;2022-12-24T10:21:56;5.05;;;2.38;;
45136;SDS011;30894;51.740;19.498;2022-12-24T10:24:37;5.20;;;3.05;;
45136;SDS011;30894;51.740;19.498;2022-12-24T10:27:14;5.28;;;2.63;;
45136;SDS011;30894;51.740;19.498;2022-12-24T10:29:48;5.00;;;3.38;;
45136;SDS011;30894;51.740;19.498;2022-12-24T10:32:23;7.97;;;3.70;;
45136;SDS011;30894;51.740;19.498;2022-12-24T10:34:59;5.32;;;2.65;;
45136;SDS011;30894;51.740;19.498;2022-12-24T10:40:13;9.38;;;3.88;;
45136;SDS011;30894;51.740;19.498;2022-12-24T10:42:48;4.13;;;2.28;;
45136;SDS011;30894;51.740;19.498;2022-12-24T10:45:15;5.40;;;2.97;;
45136;SDS011;30894;51.740;19.498;2022-12-24T10:47:47;2.50;;;2.15;;
45136;SDS011;30894;51.740;19.498;2022-12-24T10:53:13;7.63;;;3.30;;
45136;SDS011;30894;51.740;19.498;2022-12-24T10:55:59;5.32;;;2.22;;
45136;SDS011;30894;51.740;19.498;2022-12-24T10:58:31;5.07;;;3.25;;
45136;SDS011;30894;51.740;19.498;2022-12-24T11:00:59;5.68;;;3.45;;
45136;SDS011;30894;51.740;19.498;2022-12-24T11:03:33;5.65;;;2.83;;
45136;SDS011;30894;51.740;19.498;2022-12-24T11:08:34;5.75;;;3.40;;
45136;SDS011;30894;51.740;19.498;2022-12-24T11:11:03;6.97;;;3.22;;
45136;SDS011;30894;51.740;19.498;2022-12-24T11:13:37;4.82;;;3.50;;
45136;SDS011;30894;51.740;19.498;2022-12-24T11:19:01;4.45;;;2.67;;
45136;SDS011;30894;51.740;19.498;2022-12-24T11:21:35;5.40;;;2.90;;
45136;SDS011;30894;51.740;19.498;2022-12-24T11:26:42;4.82;;;2.50;;
45136;SDS011;30894;51.740;19.498;2022-12-24T11:29:18;7.90;;;3.33;;
45136;SDS011;30894;51.740;19.498;2022-12-24T11:31:50;7.22;;;3.00;;
45136;SDS011;30894;51.740;19.498;2022-12-24T11:34:27;3.78;;;3.03;;
45136;SDS011;30894;51.740;19.498;2022-12-24T11:37:06;7.93;;;2.90;;
45136;SDS011;30894;51.740;19.498;2022-12-24T11:39:44;5.18;;;2.40;;
45136;SDS011;30894;51.740;19.498;2022-12-24T11:42:52;7.47;;;1.98;;
45136;SDS011;30894;51.740;19.498;2022-12-24T11:47:52;9.15;;;2.95;;
45136;SDS011;30894;51.740;19.498;2022-12-24T11:50:20;11.70;;;3.38;;
45136;SDS011;30894;51.740;19.498;2022-12-24T11:58:34;6.05;;;3.47;;
45136;SDS011;30894;51.740;19.498;2022-12-24T12:01:21;14.95;;;4.97;;
45136;SDS011;30894;51.740;19.498;2022-12-24T12:03:55;8.13;;;4.20;;
45136;SDS011;30894;51.740;19.498;2022-12-24T12:06:39;8.90;;;3.65;;
45136;SDS011;30894;51.740;19.498;2022-12-24T12:09:12;3.50;;;2.63;;
45136;SDS011;30894;51.740;19.498;2022-12-24T12:11:47;10.48;;;3.03;;
45136;SDS011;30894;51.740;19.498;2022-12-24T12:14:20;11.32;;;4.93;;
45136;SDS011;30894;51.740;19.498;2022-12-24T12:17:48;8.02;;;3.90;;
45136;SDS011;30894;51.740;19.498;2022-12-24T12:20:32;8.45;;;3.88;;
45136;SDS011;30894;51.740;19.498;2022-12-24T12:23:23;8.90;;;3.45;;
45136;SDS011;30894;51.740;19.498;2022-12-24T12:26:03;7.72;;;3.17;;
45136;SDS011;30894;51.740;19.498;2022-12-24T12:29:03;15.43;;;4.40;;
45136;SDS011;30894;51.740;19.498;2022-12-24T12:31:56;10.07;;;3.83;;
45136;SDS011;30894;51.740;19.498;2022-12-24T12:39:36;8.15;;;4.07;;
45136;SDS011;30894;51.740;19.498;2022-12-24T12:45:38;10.32;;;4.18;;
45136;SDS011;30894;51.740;19.498;2022-12-24T12:48:52;5.13;;;2.42;;
45136;SDS011;30894;51.740;19.498;2022-12-24T12:57:12;10.18;;;4.07;;
45136;SDS011;30894;51.740;19.498;2022-12-24T12:59:47;8.52;;;3.80;;
45136;SDS011;30894;51.740;19.498;2022-12-24T13:22:31;10.25;;;3.90;;
45136;SDS011;30894;51.740;19.498;2022-12-24T13:24:57;13.93;;;4.05;;
45136;SDS011;30894;51.740;19.498;2022-12-24T13:27:31;5.78;;;3.28;;
45136;SDS011;30894;51.740;19.498;2022-12-24T13:30:06;5.20;;;2.75;;
45136;SDS011;30894;51.740;19.498;2022-12-24T13:33:07;4.88;;;2.53;;
45136;SDS011;30894;51.740;19.498;2022-12-24T13:35:37;6.70;;;3.67;;
45136;SDS011;30894;51.740;19.498;2022-12-24T13:40:53;6.95;;;3.92;;
45136;SDS011;30894;51.740;19.498;2022-12-24T13:43:20;12.30;;;3.95;;
45136;SDS011;30894;51.740;19.498;2022-12-24T13:45:47;9.95;;;3.97;;
45136;SDS011;30894;51.740;19.498;2022-12-24T13:48:27;8.90;;;3.70;;
45136;SDS011;30894;51.740;19.498;2022-12-24T13:51:17;9.68;;;3.58;;
45136;SDS011;30894;51.740;19.498;2022-12-24T13:53:49;6.15;;;2.92;;
45136;SDS011;30894;51.740;19.498;2022-12-24T13:56:24;6.45;;;4.40;;
45136;SDS011;30894;51.740;19.498;2022-12-24T13:58:54;13.18;;;3.67;;
45136;SDS011;30894;51.740;19.498;2022-12-24T14:01:39;14.55;;;4.43;;
45136;SDS011;30894;51.740;19.498;2022-12-24T14:04:07;8.80;;;2.95;;
45136;SDS011;30894;51.740;19.498;2022-12-24T14:06:48;8.18;;;4.32;;
45136;SDS011;30894;51.740;19.498;2022-12-24T14:09:18;14.15;;;4.57;;
45136;SDS011;30894;51.740;19.498;2022-12-24T14:19:53;6.20;;;3.63;;
45136;SDS011;30894;51.740;19.498;2022-12-24T14:25:19;16.52;;;4.57;;
45136;SDS011;30894;51.740;19.498;2022-12-24T14:27:55;10.70;;;4.95;;
45136;SDS011;30894;51.740;19.498;2022-12-24T14:30:29;10.52;;;3.55;;
45136;SDS011;30894;51.740;19.498;2022-12-24T14:32:59;14.73;;;5.13;;
45136;SDS011;30894;51.740;19.498;2022-12-24T14:35:29;5.43;;;3.15;;
45136;SDS011;30894;51.740;19.498;2022-12-24T14:38:14;9.68;;;3.83;;
45136;SDS011;30894;51.740;19.498;2022-12-24T14:40:59;6.88;;;3.42;;
45136;SDS011;30894;51.740;19.498;2022-12-24T14:46:47;16.08;;;3.80;;
45136;SDS011;30894;51.740;19.498;2022-12-24T14:52:26;11.20;;;4.65;;
45136;SDS011;30894;51.740;19.498;2022-12-24T14:55:35;10.85;;;4.65;;
45136;SDS011;30894;51.740;19.498;2022-12-24T15:00:59;4.57;;;3.60;;
45136;SDS011;30894;51.740;19.498;2022-12-24T15:03:41;6.25;;;3.10;;
45136;SDS011;30894;51.740;19.498;2022-12-24T15:06:07;10.48;;;4.03;;
45136;SDS011;30894;51.740;19.498;2022-12-24T15:08:37;9.88;;;5.10;;
45136;SDS011;30894;51.740;19.498;2022-12-24T15:11:13;15.93;;;4.33;;
45136;SDS011;30894;51.740;19.498;2022-12-24T15:13:45;16.55;;;5.90;;
45136;SDS011;30894;51.740;19.498;2022-12-24T15:16:36;12.75;;;5.30;;
45136;SDS011;30894;51.740;19.498;2022-12-24T15:19:03;10.98;;;5.25;;
45136;SDS011;30894;51.740;19.498;2022-12-24T15:21:37;7.65;;;4.05;;
45136;SDS011;30894;51.740;19.498;2022-12-24T15:24:22;14.63;;;4.88;;
45136;SDS011;30894;51.740;19.498;2022-12-24T15:26:52;12.98;;;4.78;;
45136;SDS011;30894;51.740;19.498;2022-12-24T15:29:22;17.02;;;4.85;;
45136;SDS011;30894;51.740;19.498;2022-12-24T15:31:56;13.20;;;3.90;;
45136;SDS011;30894;51.740;19.498;2022-12-24T15:34:37;11.50;;;4.60;;
45136;SDS011;30894;51.740;19.498;2022-12-24T15:39:53;16.33;;;4.05;;
45136;SDS011;30894;51.740;19.498;2022-12-24T15:42:42;13.63;;;5.28;;
45136;SDS011;30894;51.740;19.498;2022-12-24T15:48:38;12.45;;;4.00;;
45136;SDS011;30894;51.740;19.498;2022-12-24T15:50:54;7.63;;;4.53;;
45136;SDS011;30894;51.740;19.498;2022-12-24T15:53:34;11.73;;;5.45;;
45136;SDS011;30894;51.740;19.498;2022-12-24T15:56:09;11.77;;;5.00;;
45136;SDS011;30894;51.740;19.498;2022-12-24T15:58:40;8.52;;;4.30;;
45136;SDS011;30894;51.740;19.498;2022-12-24T16:03:38;10.52;;;4.05;;
45136;SDS011;30894;51.740;19.498;2022-12-24T16:06:20;14.38;;;3.92;;
45136;SDS011;30894;51.740;19.498;2022-12-24T16:08:47;7.13;;;3.97;;
45136;SDS011;30894;51.740;19.498;2022-12-24T16:11:16;8.57;;;3.70;;
45136;SDS011;30894;51.740;19.498;2022-12-24T16:14:12;12.75;;;4.47;;
45136;SDS011;30894;51.740;19.498;2022-12-24T16:16:45;5.80;;;3.05;;
45136;SDS011;30894;51.740;19.498;2022-12-24T16:19:15;6.60;;;3.85;;
45136;SDS011;30894;51.740;19.498;2022-12-24T16:21:58;14.57;;;4.43;;
45136;SDS011;30894;51.740;19.498;2022-12-24T16:24:49;7.38;;;4.28;;
45136;SDS011;30894;51.740;19.498;2022-12-24T16:27:19;7.05;;;3.65;;
45136;SDS011;30894;51.740;19.498;2022-12-24T16:29:46;13.32;;;5.10;;
45136;SDS011;30894;51.740;19.498;2022-12-24T16:32:27;9.27;;;3.65;;
45136;SDS011;30894;51.740;19.498;2022-12-24T16:35:00;12.80;;;5.00;;
45136;SDS011;30894;51.740;19.498;2022-12-24T16:37:30;13.75;;;5.68;;
45136;SDS011;30894;51.740;19.498;2022-12-24T16:39:59;11.50;;;4.43;;
45136;SDS011;30894;51.740;19.498;2022-12-24T16:42:25;8.85;;;3.40;;
45136;SDS011;30894;51.740;19.498;2022-12-24T16:45:10;11.45;;;3.65;;
45136;SDS011;30894;51.740;19.498;2022-12-24T16:47:40;15.38;;;5.03;;
45136;SDS011;30894;51.740;19.498;2022-12-24T16:50:06;7.05;;;3.13;;
45136;SDS011;30894;51.740;19.498;2022-12-24T16:52:36;7.32;;;3.25;;
45136;SDS011;30894;51.740;19.498;2022-12-24T16:55:05;10.77;;;3.20;;
45136;SDS011;30894;51.740;19.498;2022-12-24T16:57:32;12.88;;;5.80;;
45136;SDS011;30894;51.740;19.498;2022-12-24T16:59:58;11.82;;;5.38;;
45136;SDS011;30894;51.740;19.498;2022-12-24T17:02:28;8.15;;;3.67;;